createdAt,value
2018-05-07T00:00:17.555Z,14.40
2018-05-07T00:02:47.332Z,14.30
2018-05-07T00:05:16.385Z,14.30
2018-05-07T00:07:45.433Z,14.30
2018-05-07T00:10:15.249Z,14.30
2018-05-07T00:12:45.081Z,14.20
2018-05-07T00:15:14.299Z,14.20
2018-05-07T00:17:43.324Z,14.20
2018-05-07T00:20:12.368Z,14.20
2018-05-07T00:22:41.424Z,14.10
2018-05-07T00:25:10.515Z,14.00
2018-05-07T00:27:39.542Z,14.00
2018-05-07T00:30:08.637Z,13.80
2018-05-07T00:32:38.472Z,14.00
2018-05-07T00:35:07.501Z,13.90
2018-05-07T00:37:36.595Z,14.00
2018-05-07T00:40:06.112Z,13.90
2018-05-07T00:42:35.208Z,13.90
2018-05-07T00:45:03.542Z,13.90
2018-05-07T00:47:32.605Z,13.90
2018-05-07T00:50:02.382Z,13.90
2018-05-07T00:52:31.400Z,13.80
2018-05-07T00:55:12.405Z,13.90
2018-05-07T00:57:41.502Z,13.80
2018-05-07T01:00:10.607Z,13.90
2018-05-07T01:02:39.698Z,13.90
2018-05-07T01:05:08.069Z,13.80
2018-05-07T01:07:37.145Z,13.80
2018-05-07T01:10:06.957Z,13.80
2018-05-07T01:12:36.762Z,13.70
2018-05-07T01:15:05.128Z,13.60
2018-05-07T01:17:34.951Z,13.60
2018-05-07T01:20:04.422Z,13.60
2018-05-07T01:22:33.124Z,13.60
2018-05-07T01:25:02.957Z,13.60
2018-05-07T01:27:32.754Z,13.60
2018-05-07T01:30:02.306Z,13.60
2018-05-07T01:32:31.468Z,13.50
2018-05-07T01:35:01.279Z,13.50
2018-05-07T01:37:31.091Z,13.50
2018-05-07T01:40:00.118Z,13.50
2018-05-07T01:42:28.583Z,13.50
2018-05-07T01:44:57.629Z,13.50
2018-05-07T01:47:26.651Z,13.50
2018-05-07T01:49:55.693Z,13.40
2018-05-07T01:52:24.749Z,13.40
2018-05-07T01:54:53.577Z,13.40
2018-05-07T01:57:22.671Z,13.40
2018-05-07T01:59:52.619Z,13.40
2018-05-07T02:02:22.132Z,13.40
2018-05-07T02:04:52.115Z,13.30
2018-05-07T02:07:21.356Z,13.30
2018-05-07T02:09:50.423Z,13.30
2018-05-07T02:12:19.592Z,13.20
2018-05-07T02:14:48.430Z,13.20
2018-05-07T02:17:18.204Z,13.30
2018-05-07T02:19:47.341Z,13.20
2018-05-07T02:22:17.253Z,13.20
2018-05-07T02:24:47.068Z,13.10
2018-05-07T02:27:16.468Z,13.10
2018-05-07T02:29:46.274Z,13.10
2018-05-07T02:32:16.192Z,13.10
2018-05-07T02:34:45.963Z,13.00
2018-05-07T02:37:14.978Z,12.90
2018-05-07T02:39:44.803Z,12.90
2018-05-07T02:42:14.577Z,12.90
2018-05-07T02:44:43.402Z,12.80
2018-05-07T02:47:13.216Z,12.90
2018-05-07T02:49:43.009Z,12.80
2018-05-07T02:52:12.837Z,12.70
2018-05-07T02:54:42.643Z,12.70
2018-05-07T02:57:12.079Z,12.60
2018-05-07T02:59:41.122Z,12.60
2018-05-07T03:02:10.957Z,12.70
2018-05-07T03:04:40.776Z,12.70
2018-05-07T03:07:09.461Z,12.60
2018-05-07T03:09:38.508Z,12.60
2018-05-07T03:12:07.581Z,12.50
2018-05-07T03:14:36.810Z,12.60
2018-05-07T03:17:05.940Z,12.60
2018-05-07T03:19:35.815Z,12.40
2018-05-07T03:22:04.232Z,12.40
2018-05-07T03:24:33.335Z,12.50
2018-05-07T03:27:01.738Z,12.50
2018-05-07T03:29:30.801Z,12.50
2018-05-07T03:31:59.846Z,12.40
2018-05-07T03:34:29.662Z,12.50
2018-05-07T03:36:58.680Z,12.40
2018-05-07T03:39:27.480Z,12.40
2018-05-07T03:41:57.258Z,12.40
2018-05-07T03:44:27.204Z,12.40
2018-05-07T03:46:57.015Z,12.50
2018-05-07T03:49:26.828Z,12.50
2018-05-07T03:51:59.615Z,12.50
2018-05-07T03:54:28.677Z,12.40
2018-05-07T03:56:58.513Z,12.50
2018-05-07T03:59:28.328Z,12.50
2018-05-07T04:01:57.780Z,12.50
2018-05-07T04:04:26.824Z,12.40
2018-05-07T04:06:56.601Z,12.50
2018-05-07T04:09:25.629Z,12.40
2018-05-07T04:11:54.690Z,12.60
2018-05-07T04:14:23.730Z,12.60
2018-05-07T04:17:03.928Z,12.60
2018-05-07T04:22:45.895Z,12.70
2018-05-07T04:25:14.962Z,12.80
2018-05-07T04:27:44.103Z,13.00
2018-05-07T04:30:13.354Z,13.30
2018-05-07T04:32:43.214Z,14.00
2018-05-07T04:35:12.136Z,14.00
2018-05-07T04:37:41.227Z,14.40
2018-05-07T04:40:10.364Z,14.90
2018-05-07T04:42:40.136Z,15.90
2018-05-07T04:45:09.181Z,15.80
2018-05-07T04:47:38.232Z,16.20
2018-05-07T04:50:08.076Z,17.00
2018-05-07T04:52:37.847Z,17.20
2018-05-07T04:55:06.953Z,17.10
2018-05-07T04:57:36.184Z,17.30
2018-05-07T05:00:05.623Z,18.20
2018-05-07T05:02:34.663Z,18.10
2018-05-07T05:05:03.351Z,18.00
2018-05-07T05:07:32.387Z,18.20
2018-05-07T05:10:01.434Z,18.30
2018-05-07T05:12:31.360Z,18.50
2018-05-07T05:15:01.171Z,19.00
2018-05-07T05:17:30.260Z,19.00
2018-05-07T05:19:59.321Z,19.30
2018-05-07T05:22:28.155Z,19.70
2018-05-07T05:24:57.690Z,19.40
2018-05-07T05:27:27.002Z,19.50
2018-05-07T05:29:56.272Z,19.00
2018-05-07T05:32:26.084Z,19.90
2018-05-07T05:34:55.282Z,19.80
2018-05-07T05:37:24.714Z,20.60
2018-05-07T05:39:54.564Z,21.20
2018-05-07T05:42:24.212Z,21.80
2018-05-07T05:44:54.632Z,22.50
2018-05-07T05:47:24.515Z,23.00
2018-05-07T05:49:54.148Z,23.20
2018-05-07T05:52:24.156Z,23.60
2018-05-07T05:54:53.603Z,23.90
2018-05-07T05:57:23.246Z,25.00
2018-05-07T05:59:52.974Z,25.60
2018-05-07T06:02:23.374Z,25.80
2018-05-07T06:04:52.993Z,25.50
2018-05-07T06:07:22.721Z,26.40
2018-05-07T06:09:52.280Z,26.80
2018-05-07T06:12:21.926Z,27.40
2018-05-07T06:14:51.684Z,27.70
2018-05-07T06:17:21.321Z,28.90
2018-05-07T06:19:50.949Z,26.90
2018-05-07T06:22:20.555Z,26.20
2018-05-07T06:24:50.162Z,27.20
2018-05-07T06:27:19.797Z,29.00
2018-05-07T06:29:49.244Z,30.30
2018-05-07T06:32:18.878Z,30.00
2018-05-07T06:34:48.688Z,30.00
2018-05-07T06:37:18.478Z,30.80
2018-05-07T06:39:48.123Z,30.40
2018-05-07T06:42:17.906Z,31.60
2018-05-07T06:44:47.523Z,31.10
2018-05-07T06:47:17.334Z,30.10
2018-05-07T06:49:47.049Z,30.20
2018-05-07T06:52:16.754Z,32.30
2018-05-07T06:54:46.485Z,33.00
2018-05-07T06:57:16.073Z,33.50
2018-05-07T06:59:45.749Z,32.00
2018-05-07T07:02:15.433Z,32.70
2018-05-07T07:04:45.304Z,34.70
2018-05-07T07:07:14.965Z,36.00
2018-05-07T07:09:44.881Z,36.40
2018-05-07T07:12:14.625Z,33.30
2018-05-07T07:14:44.346Z,35.00
2018-05-07T07:17:14.051Z,36.20
2018-05-07T07:19:43.757Z,35.50
2018-05-07T07:22:13.256Z,35.00
2018-05-07T07:24:42.945Z,34.40
2018-05-07T07:27:12.579Z,36.80
2018-05-07T07:29:43.541Z,30.60
2018-05-07T07:32:14.138Z,29.70
2018-05-07T07:34:43.826Z,29.70
2018-05-07T07:37:13.599Z,30.50
2018-05-07T07:39:43.307Z,28.40
2018-05-07T07:42:13.981Z,28.20
2018-05-07T07:44:44.436Z,30.20
2018-05-07T07:47:14.193Z,30.20
2018-05-07T07:49:44.036Z,30.70
2018-05-07T07:52:14.481Z,32.00
2018-05-07T07:54:44.176Z,32.00
2018-05-07T07:57:13.961Z,30.70
2018-05-07T07:59:43.951Z,30.40
2018-05-07T08:02:13.851Z,28.30
2018-05-07T08:04:43.698Z,30.30
2018-05-07T08:07:13.362Z,30.00
2018-05-07T08:09:43.667Z,29.00
2018-05-07T08:12:13.300Z,30.90
2018-05-07T08:14:43.182Z,30.10
2018-05-07T08:17:12.791Z,26.90
2018-05-07T08:19:42.383Z,27.20
2018-05-07T08:22:11.983Z,26.30
2018-05-07T08:24:41.610Z,26.40
2018-05-07T08:27:11.398Z,27.60
2018-05-07T08:29:41.145Z,28.50
2018-05-07T08:32:10.752Z,25.70
2018-05-07T08:34:40.123Z,25.00
2018-05-07T08:37:09.737Z,26.60
2018-05-07T08:39:39.334Z,25.50
2018-05-07T08:42:08.929Z,25.30
2018-05-07T08:44:38.518Z,25.50
2018-05-07T08:47:08.185Z,24.90
2018-05-07T08:49:37.896Z,24.30
2018-05-07T08:52:07.468Z,24.10
2018-05-07T08:54:37.082Z,24.60
2018-05-07T08:57:06.676Z,25.00
2018-05-07T08:59:36.490Z,25.20
2018-05-07T09:02:06.170Z,24.90
2018-05-07T09:04:35.958Z,25.70
2018-05-07T09:07:05.653Z,25.20
2018-05-07T09:09:35.293Z,25.10
2018-05-07T09:12:04.901Z,24.00
2018-05-07T09:14:35.289Z,24.00
2018-05-07T09:17:04.374Z,23.90
2018-05-07T09:19:33.773Z,23.00
2018-05-07T09:22:03.599Z,22.70
2018-05-07T09:24:33.149Z,22.60
2018-05-07T09:27:02.206Z,22.40
2018-05-07T09:29:31.281Z,22.60
2018-05-07T09:32:01.175Z,22.50
2018-05-07T09:34:31.050Z,22.30
2018-05-07T09:37:00.222Z,22.30
2018-05-07T09:39:29.122Z,22.20
2018-05-07T09:41:57.896Z,22.30
2018-05-07T09:44:26.714Z,22.50
2018-05-07T09:46:55.750Z,22.20
2018-05-07T09:49:25.578Z,22.60
2018-05-07T09:51:54.845Z,22.50
2018-05-07T09:54:23.898Z,22.90
2018-05-07T09:56:55.131Z,23.10
2018-05-07T09:59:24.305Z,22.80
2018-05-07T10:01:54.088Z,23.20
2018-05-07T10:04:23.939Z,23.50
2018-05-07T10:06:52.975Z,23.50
2018-05-07T10:09:22.014Z,23.80
2018-05-07T10:11:51.808Z,22.70
2018-05-07T10:14:20.546Z,22.70
2018-05-07T10:16:49.210Z,22.90
2018-05-07T10:19:18.311Z,22.90
2018-05-07T10:21:47.390Z,22.70
2018-05-07T10:24:16.512Z,23.30
2018-05-07T10:26:46.517Z,23.30
2018-05-07T10:29:15.684Z,23.20
2018-05-07T10:31:45.537Z,23.20
2018-05-07T10:34:14.580Z,23.20
2018-05-07T10:36:43.663Z,23.30
2018-05-07T10:39:13.527Z,22.90
2018-05-07T10:41:42.557Z,22.80
2018-05-07T10:44:12.558Z,23.40
2018-05-07T10:46:42.509Z,23.30
2018-05-07T10:49:11.605Z,23.30
2018-05-07T10:51:40.845Z,23.20
2018-05-07T10:54:09.869Z,22.70
2018-05-07T10:56:38.918Z,23.10
2018-05-07T10:59:08.038Z,22.70
2018-05-07T11:01:37.146Z,22.90
2018-05-07T11:04:06.520Z,23.30
2018-05-07T11:06:35.587Z,23.60
2018-05-07T11:09:05.547Z,23.60
2018-05-07T11:11:34.582Z,23.60
2018-05-07T11:14:04.055Z,23.10
2018-05-07T11:16:33.101Z,23.10
2018-05-07T11:19:02.902Z,22.60
2018-05-07T11:21:32.741Z,22.90
2018-05-07T11:24:01.748Z,22.90
2018-05-07T11:26:30.453Z,23.10
2018-05-07T11:28:59.482Z,23.10
2018-05-07T11:31:29.310Z,23.10
2018-05-07T11:33:59.111Z,22.80
2018-05-07T11:36:28.948Z,22.70
2018-05-07T11:38:58.760Z,22.80
2018-05-07T11:41:28.752Z,22.90
2018-05-07T11:43:58.573Z,22.70
2018-05-07T11:46:27.631Z,22.70
2018-05-07T11:48:56.755Z,22.70
2018-05-07T11:51:26.602Z,22.40
2018-05-07T11:53:55.734Z,22.40
2018-05-07T11:56:24.872Z,22.50
2018-05-07T11:58:54.010Z,22.60
2018-05-07T12:01:22.821Z,22.50
2018-05-07T12:03:51.884Z,22.40
2018-05-07T12:06:20.926Z,22.30
2018-05-07T12:08:50.721Z,22.50
2018-05-07T12:11:19.754Z,22.50
2018-05-07T12:13:48.849Z,22.70
2018-05-07T12:16:18.641Z,22.70
2018-05-07T12:18:48.454Z,22.50
2018-05-07T12:21:18.030Z,22.50
2018-05-07T12:23:47.068Z,22.50
2018-05-07T12:26:15.791Z,22.60
2018-05-07T12:28:44.831Z,22.60
2018-05-07T12:31:13.953Z,22.70
2018-05-07T12:33:43.143Z,22.60
2018-05-07T12:36:12.180Z,22.70
2018-05-07T12:38:41.348Z,22.70
2018-05-07T12:41:10.492Z,22.70
2018-05-07T12:43:39.318Z,22.70
2018-05-07T12:46:08.164Z,22.70
2018-05-07T12:48:37.214Z,22.80
2018-05-07T12:51:06.086Z,22.70
2018-05-07T12:53:35.174Z,22.80
2018-05-07T12:56:04.764Z,22.70
2018-05-07T12:58:34.651Z,22.70
2018-05-07T13:01:03.996Z,22.70
2018-05-07T13:03:33.675Z,22.70
2018-05-07T13:06:02.774Z,22.80
2018-05-07T13:08:31.795Z,22.80
2018-05-07T13:11:01.394Z,22.80
2018-05-07T17:35:35.703Z,22.20
2018-05-07T17:38:04.756Z,22.30
2018-05-07T17:40:34.572Z,22.40
2018-05-07T17:43:03.912Z,22.30
2018-05-07T17:45:55.889Z,22.30
2018-05-07T17:48:36.398Z,22.30
2018-05-07T17:51:05.406Z,22.30
2018-05-07T17:53:34.782Z,22.30
2018-05-07T17:56:04.192Z,22.30
2018-05-07T17:58:33.694Z,22.20
2018-05-07T18:01:03.778Z,22.20
2018-05-07T18:03:33.249Z,22.20
2018-05-07T18:06:02.389Z,22.20
2018-05-07T18:08:31.194Z,22.20
2018-05-07T18:11:01.088Z,22.10
2018-05-07T18:13:30.634Z,22.10
2018-05-07T18:15:59.929Z,22.10
2018-05-07T18:18:29.504Z,22.10
2018-05-07T18:20:59.071Z,22.00
2018-05-07T18:23:30.767Z,21.90
2018-05-07T18:26:00.258Z,21.90
2018-05-07T18:28:29.672Z,21.90
2018-05-07T18:30:58.864Z,21.80
2018-05-07T18:33:28.063Z,21.70
2018-05-07T18:35:58.247Z,21.70
2018-05-07T18:38:27.501Z,21.70
2018-05-07T18:40:56.833Z,21.60
2018-05-07T18:43:26.290Z,21.60
2018-05-07T18:45:55.833Z,21.50
2018-05-07T18:48:25.019Z,21.50
2018-05-07T18:50:54.616Z,21.40
2018-05-07T18:53:24.037Z,21.30
2018-05-07T18:55:53.556Z,21.30
2018-05-07T18:58:23.099Z,21.30
2018-05-07T19:00:53.706Z,21.20
2018-05-07T19:03:23.392Z,21.20
2018-05-07T19:05:52.682Z,21.10
2018-05-07T19:08:22.010Z,21.10
2018-05-07T19:10:51.374Z,21.00
2018-05-07T19:13:20.460Z,21.00
2018-05-07T19:15:49.804Z,20.90
2018-05-07T19:18:19.414Z,20.80
2018-05-07T19:20:48.518Z,20.80
2018-05-07T19:23:17.584Z,20.70
2018-05-07T19:25:46.667Z,20.70
2018-05-07T19:28:16.470Z,20.70
2018-05-07T19:30:45.542Z,20.60
2018-05-07T19:33:15.348Z,20.60
2018-05-07T19:35:45.284Z,20.50
2018-05-07T19:38:14.414Z,20.50
2018-05-07T19:40:43.529Z,20.50
2018-05-07T19:43:13.461Z,20.40
2018-05-07T19:45:43.337Z,20.40
2018-05-07T19:48:12.717Z,20.40
2018-05-07T19:50:41.984Z,20.40
2018-05-07T19:53:11.740Z,20.30
2018-05-07T19:55:41.069Z,20.30
2018-05-07T19:58:10.960Z,20.20
2018-05-07T20:00:40.458Z,20.20
2018-05-07T20:03:09.899Z,20.10
2018-05-07T20:05:39.861Z,20.10
2018-05-07T20:08:10.064Z,20.00
2018-05-07T20:10:39.137Z,20.00
2018-05-07T20:13:09.176Z,20.00
2018-05-07T20:15:38.386Z,19.90
2018-05-07T20:18:07.403Z,19.90
2018-05-07T20:20:37.077Z,19.80
2018-05-07T20:23:06.614Z,19.80
2018-05-07T20:25:35.816Z,19.80
2018-05-07T20:28:05.768Z,19.80
2018-05-07T20:30:34.613Z,19.70
2018-05-07T20:33:04.225Z,19.70
2018-05-07T20:35:34.359Z,19.70
2018-05-07T20:38:03.529Z,19.70
2018-05-07T20:40:32.738Z,19.70
2018-05-07T20:43:01.389Z,19.70
2018-05-07T20:45:29.620Z,19.60
2018-05-07T20:47:58.632Z,19.60
2018-05-07T20:50:28.475Z,19.50
2018-05-07T20:52:57.612Z,19.50
2018-05-07T20:55:26.147Z,19.50
2018-05-07T20:57:54.655Z,19.40
2018-05-07T21:00:22.876Z,19.40
2018-05-07T21:02:51.860Z,19.40
2018-05-07T21:05:21.466Z,19.30
2018-05-07T21:07:50.492Z,19.30
2018-05-07T21:10:18.778Z,19.30
2018-05-07T21:12:48.069Z,19.30
2018-05-07T21:15:17.107Z,19.20
2018-05-07T21:17:46.254Z,19.20
2018-05-07T21:20:15.344Z,19.20
2018-05-07T21:22:44.967Z,19.20
2018-05-07T21:25:13.963Z,19.10
2018-05-07T21:27:43.251Z,19.10
2018-05-07T21:30:12.306Z,19.10
2018-05-07T21:32:40.623Z,19.00
2018-05-07T21:35:09.249Z,19.10
2018-05-07T21:37:38.399Z,19.00
2018-05-07T21:40:07.262Z,19.00
2018-05-07T21:42:36.328Z,18.90
2018-05-07T21:45:05.384Z,18.90
2018-05-07T21:47:34.475Z,18.80
2018-05-07T21:50:03.516Z,18.80
2018-05-07T21:52:32.610Z,18.70
2018-05-07T21:55:01.675Z,18.50
2018-05-07T21:57:30.832Z,18.50
2018-05-07T21:59:59.960Z,18.40
2018-05-07T22:02:29.136Z,18.30
2018-05-07T22:04:58.232Z,18.20
2018-05-07T22:07:27.325Z,18.20
2018-05-07T22:09:57.142Z,18.20
2018-05-07T22:12:26.208Z,18.20
2018-05-07T22:14:55.391Z,18.20
2018-05-07T22:17:24.524Z,18.10
2018-05-07T22:19:53.623Z,18.00
2018-05-07T22:22:23.425Z,18.00
2018-05-07T22:24:52.930Z,17.90
2018-05-07T22:27:21.989Z,17.90
2018-05-07T22:29:51.024Z,17.80
2018-05-07T22:32:20.054Z,17.80
2018-05-07T22:34:49.213Z,17.80
2018-05-07T22:37:18.516Z,17.80
2018-05-07T22:39:47.599Z,17.70
2018-05-07T22:42:17.380Z,17.70
2018-05-07T22:44:46.403Z,17.60
2018-05-07T22:47:15.509Z,17.60
2018-05-07T22:49:44.559Z,17.60
2018-05-07T22:52:13.320Z,17.60
2018-05-07T22:54:42.352Z,17.60
2018-05-07T22:57:11.586Z,17.50
2018-05-07T22:59:40.686Z,17.40
2018-05-07T23:02:09.785Z,17.40
2018-05-07T23:04:39.824Z,17.40
2018-05-07T23:07:08.915Z,17.30
2018-05-07T23:09:38.072Z,17.30
2018-05-07T23:12:07.583Z,17.30
2018-05-07T23:14:36.675Z,17.20
2018-05-07T23:17:05.467Z,17.20
2018-05-07T23:19:34.549Z,17.20
2018-05-07T23:22:04.468Z,17.20
2018-05-07T23:24:34.282Z,17.10
2018-05-07T23:27:03.326Z,17.10
2018-05-07T23:29:32.375Z,17.10
2018-05-07T23:32:01.459Z,17.10
2018-05-07T23:34:31.246Z,17.00
2018-05-07T23:37:00.366Z,17.00
2018-05-07T23:39:30.175Z,16.90
2018-05-07T23:41:59.781Z,16.90
2018-05-07T23:44:29.402Z,16.80
2018-05-07T23:46:58.179Z,16.80
2018-05-07T23:49:27.276Z,16.80
2018-05-07T23:51:56.387Z,16.80
2018-05-07T23:54:25.418Z,16.70
2018-05-07T23:56:54.462Z,16.70
2018-05-07T23:59:23.496Z,16.60
